Johnsonville, Illinois
Current Conditions -  °F | °C
As of 1:15 PM on Friday 21 Nov 2014 (Local Time) from KFOA Reporting Station
Clear Clear  
Wind Chill: 30°   Ceiling: Unl
Heat Index: 38°   Visibility: 10mi
Dew Point: 17°   Wind: 13mph
Humidity: 42%   Direction: 130°SE
Pressure: 30.41"   Gusts: NA
Location:  38.52°N, 88.54°W
Report Text: KFOA 211915Z AUTO 13011KT 10SM CLR 04/M08 A3041 RMK AO2 T00351085
Loading
Personal Weather Stations






























Interactive Weather Map New forecast layout! Learn more

10-Day Weather Forecast

Advertisements
Track Severe Weather on mobile